Time;durP1;ratioP1;P1;durP2;ratioP2;P2;SDS_P1;SDS_P2;PMS_P1;PMS_P2;Temp;Humidity;BMP_temperature;BMP_pressure;BME280_temperature;BME280_humidity;BME280_pressure;Samples;Min_cycle;Max_cycle;Signal;HPM_P1;HPM_P2
2022/10/06 00:00:53;;;;;;;11.85;4.80;;;;;;;13.44;78.00;100698.59;2050613;28;20495;-68
2022/10/06 00:01:55;;;;;;;9.60;4.70;;;;;;;13.42;78.13;100704.28;2050301;28;20491;-68
2022/10/06 00:03:00;;;;;;;10.65;4.78;;;;;;;13.44;78.01;100702.09;2065524;28;20038;-68
2022/10/06 00:04:04;;;;;;;11.73;4.70;;;;;;;13.41;78.02;100701.91;2065697;28;20054;-68
2022/10/06 00:05:07;;;;;;;11.63;4.55;;;;;;;13.42;78.09;100707.00;2066280;28;20057;-68
2022/10/06 00:06:11;;;;;;;8.00;4.45;;;;;;;13.41;78.04;100702.69;2082375;28;20036;-68
2022/10/06 00:07:14;;;;;;;7.95;4.03;;;;;;;13.42;78.07;100703.50;2081054;28;20045;-68
2022/10/06 00:08:17;;;;;;;7.50;3.90;;;;;;;13.42;78.06;100707.00;2081738;28;20033;-68
2022/10/06 00:09:28;;;;;;;8.63;4.25;;;;;;;13.41;78.15;100713.50;2090495;28;20033;-68
2022/10/06 00:10:36;;;;;;;10.02;4.93;;;;;;;13.41;77.94;100702.69;2090627;28;20075;-68
2022/10/06 00:11:38;;;;;;;9.10;4.53;;;;;;;13.42;78.05;100706.19;2090724;28;20401;-68
2022/10/06 00:12:50;;;;;;;10.10;4.20;;;;;;;13.43;78.08;100710.53;2089986;28;20643;-69
2022/10/06 00:13:59;;;;;;;10.50;4.50;;;;;;;13.43;78.20;100702.41;2089814;28;20041;-70
2022/10/06 00:15:02;;;;;;;;;;;;;;;13.42;78.00;100701.59;2075935;28;20405;-69
2022/10/06 00:16:16;;;;;;;8.07;4.38;;;;;;;13.42;78.15;100703.50;2074434;28;19928;-69
2022/10/06 00:17:23;;;;;;;13.30;4.60;;;;;;;13.42;78.04;100698.88;2092127;28;20040;-69
2022/10/06 00:18:30;;;;;;;10.43;4.40;;;;;;;13.43;78.03;100702.41;2089516;28;20392;-70
2022/10/06 00:19:35;;;;;;;9.77;4.22;;;;;;;13.43;77.96;100702.41;2082957;28;20049;-69
2022/10/06 00:20:37;;;;;;;10.13;5.03;;;;;;;13.42;78.18;100704.28;2074130;28;20038;-69
2022/10/06 00:21:42;;;;;;;13.80;5.13;;;;;;;13.43;78.07;100705.13;2074774;28;20038;-70
2022/10/06 00:22:50;;;;;;;9.82;4.90;;;;;;;13.43;78.19;100708.63;2073562;28;20168;-69
2022/10/06 00:23:52;;;;;;;8.63;4.40;;;;;;;13.42;78.10;100704.28;2075014;28;20041;-69
2022/10/06 00:24:57;;;;;;;11.30;5.07;;;;;;;13.43;77.92;100705.13;2074152;28;20045;-70
2022/10/06 00:26:05;;;;;;;8.40;4.30;;;;;;;13.43;77.80;100699.72;2082363;28;20041;-69
2022/10/06 00:27:10;;;;;;;11.80;4.43;;;;;;;13.42;77.90;100703.50;2090113;28;20041;-69
2022/10/06 00:28:13;;;;;;;9.38;4.90;;;;;;;13.42;78.16;100700.78;2082287;28;20037;-69
2022/10/06 00:29:22;;;;;;;13.18;4.85;;;;;;;13.41;77.97;100701.91;2083235;28;20412;-70
2022/10/06 00:30:31;;;;;;;9.70;4.38;;;;;;;13.41;77.76;100699.19;2090343;28;20061;-70
2022/10/06 00:31:36;;;;;;;8.65;4.60;;;;;;;13.41;77.89;100701.91;2090488;28;20037;-70
2022/10/06 00:32:41;;;;;;;8.35;4.75;;;;;;;13.40;78.03;100693.00;2090242;28;20037;-70
2022/10/06 00:33:50;;;;;;;12.82;4.80;;;;;;;13.37;77.97;100690.88;2089560;28;20041;-69
2022/10/06 00:34:57;;;;;;;9.15;4.45;;;;;;;13.36;78.08;100691.16;2090417;28;20037;-69
2022/10/06 00:36:02;;;;;;;11.45;5.10;;;;;;;13.34;78.07;100696.88;2066858;28;20045;-69
2022/10/06 00:37:10;;;;;;;11.35;5.32;;;;;;;13.31;77.92;100686.66;2067965;28;20030;-69
2022/10/06 00:38:13;;;;;;;10.70;4.80;;;;;;;13.31;77.96;100691.25;2075973;28;20053;-69
2022/10/06 00:39:15;;;;;;;8.20;4.90;;;;;;;13.31;78.13;100693.97;2066054;28;20430;-68
2022/10/06 00:40:23;;;;;;;8.98;4.80;;;;;;;13.34;78.16;100696.88;2066830;28;20049;-69
2022/10/06 00:41:32;;;;;;;9.52;4.88;;;;;;;13.35;78.09;100692.25;2082301;28;20485;-69
2022/10/06 00:42:52;;;;;;;10.82;5.30;;;;;;;13.33;78.08;100689.84;2073940;28;20097;-69
2022/10/06 00:43:56;;;;;;;10.50;5.13;;;;;;;13.35;78.18;100703.06;2054749;28;20049;-69
2022/10/06 00:45:06;;;;;;;12.13;4.70;;;;;;;13.36;77.95;100699.25;2058636;28;20055;-68
2022/10/06 00:46:19;;;;;;;10.15;5.00;;;;;;;13.36;77.96;100704.66;2067083;28;20034;-69
2022/10/06 00:47:28;;;;;;;8.07;4.60;;;;;;;13.37;78.12;100700.88;2068892;28;20399;-69
2022/10/06 00:48:31;;;;;;;9.80;4.93;;;;;;;13.36;77.93;100700.06;2058488;28;20046;-69
2022/10/06 00:49:38;;;;;;;9.13;5.07;;;;;;;13.36;77.97;100696.56;2049052;28;20050;-69
2022/10/06 00:50:43;;;;;;;10.63;5.20;;;;;;;13.35;78.12;100692.25;2051249;28;20047;-69
2022/10/06 00:51:54;;;;;;;9.80;5.60;;;;;;;13.36;77.89;100691.16;2066802;28;20057;-69
2022/10/06 00:53:01;;;;;;;11.98;5.32;;;;;;;13.34;77.83;100696.88;2077243;28;20057;-69
2022/10/06 00:54:08;;;;;;;11.77;4.88;;;;;;;13.32;78.11;100682.06;2089212;28;20393;-69
2022/10/06 00:55:11;;;;;;;8.82;4.95;;;;;;;13.28;78.02;100686.44;2089494;28;20044;-69
2022/10/06 00:56:18;;;;;;;10.43;5.57;;;;;;;13.29;78.16;100682.63;2080911;28;20054;-69
2022/10/06 00:57:24;;;;;;;13.63;5.20;;;;;;;13.29;77.90;100688.03;2071228;28;20417;-69
2022/10/06 00:58:31;;;;;;;12.38;5.03;;;;;;;13.29;78.06;100688.03;2074681;28;20041;-68
2022/10/06 00:59:35;;;;;;;10.15;4.63;;;;;;;13.25;78.08;100687.81;2074375;28;20058;-68
2022/10/06 01:00:42;;;;;;;10.60;4.82;;;;;;;13.25;78.12;100678.94;2074217;28;20041;-69
2022/10/06 01:02:19;;;;;;;11.70;5.07;;;;;;;13.26;78.10;100686.72;2075420;28;20092;-68
2022/10/06 01:04:11;;;;;;;11.23;5.00;;;;;;;13.26;77.97;100677.81;2090159;28;20288;-68
2022/10/06 01:05:26;;;;;;;10.15;5.20;;;;;;;13.26;77.91;100680.53;2088418;28;20051;-69
2022/10/06 01:06:40;;;;;;;8.70;5.00;;;;;;;13.26;78.24;100677.81;2082129;28;20041;-67
2022/10/06 01:07:42;;;;;;;8.98;4.95;;;;;;;13.23;78.01;100674.56;2073073;28;20049;-68
2022/10/06 01:08:45;;;;;;;12.48;5.10;;;;;;;13.24;78.14;100675.41;2072541;28;20045;-69
2022/10/06 01:09:49;;;;;;;13.35;5.40;;;;;;;13.21;78.00;100670.59;2073882;28;20052;-69
2022/10/06 01:10:52;;;;;;;12.73;4.97;;;;;;;13.21;78.13;100674.09;2073529;28;20056;-68
2022/10/06 01:12:03;;;;;;;8.15;4.80;;;;;;;13.20;78.13;100669.75;2066005;28;20529;-69
2022/10/06 01:13:05;;;;;;;13.27;5.63;;;;;;;13.17;78.27;100670.34;2067611;28;20041;-68
2022/10/06 01:14:11;;;;;;;8.88;4.80;;;;;;;13.18;78.25;100671.97;2073561;28;20120;-69
2022/10/06 01:15:16;;;;;;;9.00;4.85;;;;;;;13.20;78.08;100675.16;2065937;28;20372;-68
2022/10/06 01:16:23;;;;;;;8.70;5.10;;;;;;;13.20;78.31;100666.25;2066563;28;20065;-69
2022/10/06 01:17:37;;;;;;;7.28;4.40;;;;;;;13.19;78.17;100670.84;2074349;28;20049;-69
2022/10/06 01:18:44;;;;;;;9.90;4.53;;;;;;;13.17;78.32;100664.16;2074814;28;20038;-69
2022/10/06 01:19:59;;;;;;;7.90;4.82;;;;;;;13.18;78.03;100671.97;2072872;28;20074;-69
2022/10/06 01:21:10;;;;;;;8.15;4.82;;;;;;;13.18;78.28;100666.56;2075582;28;20038;-69
2022/10/06 01:22:15;;;;;;;8.52;4.88;;;;;;;13.18;78.07;100671.97;2075050;28;20049;-68
2022/10/06 01:23:23;;;;;;;10.02;5.00;;;;;;;13.19;78.25;100673.56;2059633;28;20046;-68
2022/10/06 01:24:29;;;;;;;9.48;4.72;;;;;;;13.17;77.97;100664.94;2075321;28;20478;-69
2022/10/06 01:25:37;;;;;;;7.63;4.40;;;;;;;13.17;78.24;100667.63;2073579;28;20046;-68
2022/10/06 01:26:50;;;;;;;7.38;4.72;;;;;;;13.18;78.10;100661.16;2065517;28;20064;-69
2022/10/06 01:27:56;;;;;;;8.27;5.00;;;;;;;13.16;78.28;100671.44;2062772;28;20054;-68
2022/10/06 01:29:06;;;;;;;6.22;4.20;;;;;;;13.16;78.19;100662.53;2074403;28;20038;-69
2022/10/06 01:30:31;;;;;;;8.77;4.57;;;;;;;13.15;78.11;100669.06;2082882;28;20037;-69
2022/10/06 01:31:34;;;;;;;7.90;4.40;;;;;;;13.12;78.21;100670.44;2080497;28;20041;-69
2022/10/06 01:32:44;;;;;;;10.15;4.60;;;;;;;13.11;78.25;100673.41;2081848;28;20042;-70
2022/10/06 01:33:55;;;;;;;8.73;4.75;;;;;;;13.11;78.27;100676.91;2081568;28;20044;-70
2022/10/06 01:34:58;;;;;;;8.25;4.53;;;;;;;13.11;78.25;100670.72;2066824;28;20080;-70
2022/10/06 01:36:05;;;;;;;14.57;4.93;;;;;;;13.11;78.39;100674.22;2065342;28;20045;-70
2022/10/06 01:37:07;;;;;;;6.78;4.10;;;;;;;13.11;78.13;100679.59;2066050;28;20398;-70
2022/10/06 01:38:10;;;;;;;9.48;4.60;;;;;;;13.11;78.30;100674.22;2064032;28;20430;-69
2022/10/06 01:39:17;;;;;;;8.57;4.50;;;;;;;13.10;78.30;100678.00;2058454;28;20039;-69
2022/10/06 01:40:20;;;;;;;7.22;4.53;;;;;;;13.12;78.32;100675.84;2082337;28;20044;-69
2022/10/06 01:41:26;;;;;;;7.82;4.35;;;;;;;13.10;78.41;100669.91;2065268;28;20046;-69
2022/10/06 01:42:31;;;;;;;8.18;4.90;;;;;;;13.10;78.25;100675.31;2058322;28;20061;-69
2022/10/06 01:43:39;;;;;;;11.23;4.82;;;;;;;13.08;78.22;100672.13;2065583;28;20038;-70
2022/10/06 01:44:47;;;;;;;13.02;4.43;;;;;;;13.06;78.29;100670.81;2067355;28;20083;-69
2022/10/06 01:45:56;;;;;;;11.55;5.05;;;;;;;13.04;78.31;100676.47;2073606;28;20046;-70
2022/10/06 01:46:58;;;;;;;8.48;4.32;;;;;;;13.05;78.27;100672.72;2074195;28;20064;-69
2022/10/06 01:48:03;;;;;;;10.00;4.53;;;;;;;13.06;78.34;100674.31;2065520;28;20038;-70
2022/10/06 01:49:06;;;;;;;8.73;4.30;;;;;;;13.06;78.45;100674.31;2065074;28;20061;-70
2022/10/06 01:50:12;;;;;;;7.65;4.68;;;;;;;13.05;78.60;100672.72;2057423;28;20452;-70
2022/10/06 01:51:18;;;;;;;7.05;4.38;;;;;;;13.01;78.44;100674.38;2059484;28;20518;-69
2022/10/06 01:52:25;;;;;;;8.15;4.22;;;;;;;13.01;78.52;100679.75;2057277;28;20041;-70
2022/10/06 01:53:27;;;;;;;10.95;4.20;;;;;;;13.01;78.69;100677.06;2065845;28;20042;-69
2022/10/06 01:54:29;;;;;;;9.18;4.53;;;;;;;13.01;78.57;100677.06;2072936;28;20042;-69
2022/10/06 01:55:35;;;;;;;7.18;4.68;;;;;;;13.03;78.54;100674.09;2069363;28;20084;-68
2022/10/06 01:56:41;;;;;;;8.57;4.50;;;;;;;13.03;78.34;100682.97;2072913;28;20402;-69
2022/10/06 01:57:49;;;;;;;9.52;4.50;;;;;;;13.05;78.36;100682.69;2080814;28;20405;-69
2022/10/06 01:58:59;;;;;;;10.80;5.00;;;;;;;13.06;78.36;100679.69;2080679;28;20104;-69
2022/10/06 02:00:14;;;;;;;7.80;4.45;;;;;;;13.04;78.42;100681.09;2082677;28;20048;-69
2022/10/06 02:01:23;;;;;;;9.18;4.60;;;;;;;13.05;78.60;100683.50;2078202;28;20038;-69
2022/10/06 02:02:29;;;;;;;;;;;;;;;13.04;78.48;100679.19;2074759;28;20054;-69
2022/10/06 02:03:39;;;;;;;8.52;4.60;;;;;;;13.04;78.68;100679.19;2065956;28;19914;-69
2022/10/06 02:04:44;;;;;;;10.80;4.40;;;;;;;13.05;78.38;100683.50;2051063;28;20042;-69
2022/10/06 02:05:54;;;;;;;9.18;4.57;;;;;;;13.05;78.57;100688.91;2050727;28;20039;-69
2022/10/06 02:07:02;;;;;;;7.13;4.43;;;;;;;13.07;78.45;100686.69;2074144;28;20429;-69
2022/10/06 02:08:04;;;;;;;11.95;4.55;;;;;;;13.06;78.57;100673.50;2081476;28;20033;-69
2022/10/06 02:09:09;;;;;;;7.30;4.88;;;;;;;13.04;78.63;100673.78;2079685;28;20488;-69
2022/10/06 02:10:18;;;;;;;7.82;5.25;;;;;;;13.06;78.45;100682.41;2089692;28;20035;-69
2022/10/06 02:11:23;;;;;;;;;;;;;;;13.06;78.47;100673.50;2090017;28;20041;-69
2022/10/06 02:12:30;;;;;;;13.50;4.20;;;;;;;13.05;78.50;100675.41;2089364;28;19920;-70
2022/10/06 02:13:40;;;;;;;9.52;4.40;;;;;;;13.06;78.18;100674.31;2080758;28;20045;-69
2022/10/06 02:14:45;;;;;;;9.30;4.45;;;;;;;13.05;78.45;100672.72;2075571;28;20600;-69
2022/10/06 02:15:48;;;;;;;9.48;4.15;;;;;;;13.05;78.15;100678.09;2081425;28;20049;-70
2022/10/06 02:16:50;;;;;;;8.25;4.50;;;;;;;13.02;78.41;100678.69;2073550;28;20045;-69
2022/10/06 02:17:56;;;;;;;8.05;4.88;;;;;;;13.01;78.34;100668.97;2080522;28;20517;-70
2022/10/06 02:19:05;;;;;;;7.25;4.47;;;;;;;13.03;78.21;100679.47;2088251;28;20048;-70
2022/10/06 02:20:08;;;;;;;10.63;4.72;;;;;;;13.03;78.44;100674.88;2081153;28;20033;-70
2022/10/06 02:21:17;;;;;;;7.60;4.30;;;;;;;13.01;78.52;100682.47;2073587;28;20041;-69
2022/10/06 02:22:24;;;;;;;6.95;4.30;;;;;;;13.02;78.35;100676.00;2082444;28;20037;-69
2022/10/06 02:23:31;;;;;;;6.72;4.43;;;;;;;13.03;78.43;100690.28;2081003;28;20045;-69
2022/10/06 02:24:34;;;;;;;11.05;4.60;;;;;;;13.01;78.56;100682.47;2088839;28;20045;-70
2022/10/06 02:25:39;;;;;;;7.43;4.57;;;;;;;12.99;78.37;100679.28;2063918;28;20453;-69
2022/10/06 02:26:44;;;;;;;9.80;4.43;;;;;;;13.00;78.50;100688.97;2065892;28;20398;-69
2022/10/06 02:27:50;;;;;;;5.85;4.25;;;;;;;12.99;78.54;100680.06;2073113;28;20681;-69
2022/10/06 02:28:53;;;;;;;9.18;4.75;;;;;;;13.01;78.53;100687.84;2065547;28;20429;-69
2022/10/06 02:30:01;;;;;;;11.13;4.78;;;;;;;13.03;78.58;100684.88;2073716;28;20033;-69
2022/10/06 02:31:08;;;;;;;7.57;4.40;;;;;;;13.04;78.61;100678.38;2081247;28;20034;-69
2022/10/06 02:32:12;;;;;;;11.75;4.65;;;;;;;13.03;78.76;100680.28;2074188;28;20053;-69
2022/10/06 02:33:20;;;;;;;6.35;4.10;;;;;;;13.01;78.80;100677.06;2064858;28;20054;-69
2022/10/06 02:34:25;;;;;;;8.48;4.55;;;;;;;13.02;78.93;100681.38;2066646;28;20049;-69
2022/10/06 02:35:34;;;;;;;7.93;4.63;;;;;;;13.04;78.77;100681.88;2074046;28;20046;-69
2022/10/06 02:36:38;;;;;;;8.23;4.70;;;;;;;13.02;78.76;100681.38;2065937;28;20475;-69
2022/10/06 02:37:45;;;;;;;6.93;4.57;;;;;;;13.03;78.97;100680.28;2074762;28;20058;-69
2022/10/06 02:38:55;;;;;;;8.68;4.90;;;;;;;13.03;78.89;100685.69;2074532;28;20041;-69
2022/10/06 02:39:57;;;;;;;8.93;4.43;;;;;;;13.04;79.05;100687.28;2066967;28;20398;-69
2022/10/06 02:41:04;;;;;;;8.55;4.20;;;;;;;13.05;78.90;100688.91;2073813;28;20052;-69
2022/10/06 02:42:13;;;;;;;8.38;4.68;;;;;;;13.08;79.03;100692.88;2076037;28;20062;-69
2022/10/06 02:43:16;;;;;;;7.05;4.57;;;;;;;13.09;78.94;100699.91;2076374;28;20048;-69
2022/10/06 02:44:24;;;;;;;6.63;4.50;;;;;;;13.10;79.03;100693.41;2075209;28;20033;-69
2022/10/06 02:45:30;;;;;;;13.75;5.03;;;;;;;13.10;78.93;100685.31;2068280;28;20062;-69
2022/10/06 02:46:36;;;;;;;10.80;4.65;;;;;;;13.10;78.89;100691.50;2067961;28;20054;-69
2022/10/06 02:47:41;;;;;;;7.90;4.30;;;;;;;13.11;78.73;100690.41;2076791;28;20053;-69
2022/10/06 02:48:43;;;;;;;9.65;4.65;;;;;;;13.09;78.65;100689.91;2082149;28;20041;-69
2022/10/06 02:49:46;;;;;;;9.25;4.30;;;;;;;13.09;78.72;100679.13;2074722;28;20049;-69
2022/10/06 02:51:01;;;;;;;8.70;4.50;;;;;;;13.11;78.98;100681.50;2075241;28;20049;-69
2022/10/06 02:52:04;;;;;;;8.40;4.60;;;;;;;13.10;78.85;100678.00;2078235;28;20038;-70
2022/10/06 02:53:08;;;;;;;8.50;4.47;;;;;;;13.10;78.84;100675.31;2074748;28;20108;-69
2022/10/06 02:54:16;;;;;;;8.05;4.40;;;;;;;13.11;79.02;100686.91;2067091;28;20046;-69
2022/10/06 02:55:19;;;;;;;7.47;4.22;;;;;;;13.12;79.00;100683.13;2058823;28;20042;-69
2022/10/06 02:56:23;;;;;;;7.93;4.40;;;;;;;13.13;78.96;100685.53;2059419;28;20039;-69
2022/10/06 02:57:26;;;;;;;7.30;3.90;;;;;;;13.14;79.05;100689.81;2082712;28;20041;-69
2022/10/06 02:58:32;;;;;;;7.32;4.38;;;;;;;13.16;78.92;100695.75;2074418;28;20505;-70
2022/10/06 02:59:41;;;;;;;9.63;4.53;;;;;;;13.15;78.88;100679.84;2068205;28;20061;-69
2022/10/06 03:00:44;;;;;;;9.77;4.90;;;;;;;13.16;78.97;100695.75;2075300;28;20505;-69
2022/10/06 03:01:52;;;;;;;11.55;4.55;;;;;;;13.15;78.82;100686.03;2075613;28;20046;-69
2022/10/06 03:02:58;;;;;;;10.05;5.03;;;;;;;13.16;78.81;100694.94;2066748;28;20042;-69
2022/10/06 03:04:10;;;;;;;8.73;4.60;;;;;;;13.15;78.83;100688.75;2068104;28;20045;-69
2022/10/06 03:05:15;;;;;;;10.40;4.38;;;;;;;13.16;78.96;100694.94;2068014;28;20034;-70
2022/10/06 03:06:30;;;;;;;11.85;4.63;;;;;;;13.15;79.02;100696.84;2066359;28;20062;-69
2022/10/06 03:07:50;;;;;;;9.93;4.75;;;;;;;13.16;78.76;100697.66;2073285;28;20056;-69
2022/10/06 03:09:03;;;;;;;7.72;4.47;;;;;;;13.17;78.65;100697.34;2066706;28;20046;-69
2022/10/06 03:10:08;;;;;;;8.52;4.53;;;;;;;13.17;78.79;100697.34;2077068;28;20050;-70
2022/10/06 03:11:13;;;;;;;7.07;4.30;;;;;;;13.20;78.81;100695.97;2082717;28;20037;-69
2022/10/06 03:12:16;;;;;;;6.65;4.20;;;;;;;13.20;78.84;100695.97;2083043;28;20038;-69
2022/10/06 03:13:23;;;;;;;11.27;4.50;;;;;;;13.20;78.96;100699.47;2090903;28;20045;-69
2022/10/06 03:14:32;;;;;;;7.55;4.30;;;;;;;13.22;78.86;100696.47;2083170;28;20053;-69
2022/10/06 03:15:37;;;;;;;12.30;4.45;;;;;;;13.24;78.90;100697.00;2075660;28;20046;-69
2022/10/06 03:16:44;;;;;;;6.60;4.10;;;;;;;13.25;79.04;100695.13;2074690;28;20038;-69
2022/10/06 03:17:52;;;;;;;8.88;3.85;;;;;;;13.27;78.95;100698.31;2083098;28;20425;-69
2022/10/06 03:18:57;;;;;;;7.53;4.38;;;;;;;13.27;79.00;100701.81;2082588;28;20044;-69
2022/10/06 03:20:02;;;;;;;7.82;4.20;;;;;;;13.26;79.01;100689.41;2083018;28;20049;-69
2022/10/06 03:21:08;;;;;;;7.93;4.00;;;;;;;13.28;78.94;100694.53;2083682;28;20049;-69
2022/10/06 03:22:16;;;;;;;6.93;4.05;;;;;;;13.29;79.23;100699.63;2082993;28;20096;-69
2022/10/06 03:23:25;;;;;;;10.40;3.97;;;;;;;13.32;79.16;100703.66;2084520;28;20045;-69
2022/10/06 03:24:31;;;;;;;5.88;3.75;;;;;;;13.32;79.20;100698.25;2073148;28;20407;-69
2022/10/06 03:25:34;;;;;;;7.68;4.57;;;;;;;13.36;79.02;100699.25;2074836;28;20046;-69
2022/10/06 03:26:44;;;;;;;9.25;4.13;;;;;;;13.37;79.32;100695.47;2065551;28;20731;-68
2022/10/06 03:27:52;;;;;;;6.32;3.83;;;;;;;13.37;78.90;100696.28;2069101;28;20525;-69
2022/10/06 03:28:57;;;;;;;6.13;3.50;;;;;;;13.39;79.17;100698.69;2075319;28;20060;-69
2022/10/06 03:30:00;;;;;;;7.15;3.83;;;;;;;13.40;79.28;100700.31;2075060;28;20645;-69
2022/10/06 03:31:05;;;;;;;7.30;3.42;;;;;;;13.40;79.26;100692.19;2066432;28;20038;-70
2022/10/06 03:32:07;;;;;;;6.93;4.10;;;;;;;13.38;79.08;100692.47;2074381;28;20056;-69
2022/10/06 03:33:16;;;;;;;10.68;4.05;;;;;;;13.40;79.06;100694.91;2082125;28;20528;-70
2022/10/06 03:34:22;;;;;;;7.30;4.00;;;;;;;13.41;79.04;100707.28;2083090;28;20048;-69
2022/10/06 03:35:29;;;;;;;6.57;3.75;;;;;;;13.43;79.37;100708.63;2066195;28;20070;-69
2022/10/06 03:36:37;;;;;;;7.60;3.85;;;;;;;13.45;79.29;100709.09;2069186;28;20050;-70
2022/10/06 03:37:42;;;;;;;5.80;3.95;;;;;;;13.45;79.09;100713.72;2073768;28;20048;-71
2022/10/06 03:38:48;;;;;;;7.70;4.13;;;;;;;13.45;79.36;100719.09;2067636;28;20406;-71
2022/10/06 03:39:53;;;;;;;8.68;4.22;;;;;;;13.45;79.05;100714.50;2080246;28;20035;-71
2022/10/06 03:41:20;;;;;;;8.93;3.97;;;;;;;13.44;79.56;100712.91;2074462;28;20520;-72
2022/10/06 03:42:23;;;;;;;6.38;3.65;;;;;;;13.49;79.34;100719.31;2080146;28;20570;-71
2022/10/06 03:43:30;;;;;;;5.78;3.63;;;;;;;13.50;79.30;100718.25;2091260;28;20048;-72
2022/10/06 03:44:36;;;;;;;6.95;3.30;;;;;;;13.51;79.28;100711.75;2090660;28;20036;-71
2022/10/06 03:45:39;;;;;;;7.38;4.00;;;;;;;13.51;79.25;100717.94;2074870;28;20413;-71
2022/10/06 03:46:43;;;;;;;9.75;3.88;;;;;;;13.50;79.46;100713.66;2066405;28;20058;-71
2022/10/06 03:47:48;;;;;;;5.05;3.42;;;;;;;13.52;79.37;100713.34;2075250;28;20144;-71
2022/10/06 03:48:56;;;;;;;7.55;3.55;;;;;;;13.53;79.23;100721.16;2082733;28;20509;-71
2022/10/06 03:50:00;;;;;;;7.22;4.45;;;;;;;13.54;79.38;100721.97;2074226;28;20037;-70
2022/10/06 03:51:14;;;;;;;7.15;3.72;;;;;;;13.55;79.31;100724.34;2068962;28;20053;-71
2022/10/06 03:52:17;;;;;;;7.03;3.67;;;;;;;13.55;79.51;100721.66;2083498;28;20037;-71
2022/10/06 03:53:26;;;;;;;6.13;3.58;;;;;;;13.57;79.44;100727.56;2081903;28;20054;-71
2022/10/06 03:54:32;;;;;;;8.40;3.85;;;;;;;13.57;79.63;100722.16;2082639;28;20524;-72
2022/10/06 03:55:37;;;;;;;8.27;3.80;;;;;;;13.59;79.36;100725.38;2082486;28;20501;-71
2022/10/06 03:56:46;;;;;;;7.53;3.58;;;;;;;13.60;79.51;100724.28;2083009;28;20052;-71
2022/10/06 03:57:52;;;;;;;6.68;3.30;;;;;;;13.62;79.50;100727.50;2082272;28;20056;-72
2022/10/06 03:59:02;;;;;;;6.50;3.40;;;;;;;13.63;79.49;100726.41;2082050;28;20049;-70
2022/10/06 04:00:11;;;;;;;9.25;3.60;;;;;;;13.63;79.53;100733.69;2091381;28;20039;-70
2022/10/06 04:01:18;;;;;;;6.95;3.80;;;;;;;13.62;79.58;100727.50;2090696;28;20032;-71
2022/10/06 04:02:26;;;;;;;10.07;3.47;;;;;;;13.63;79.46;100723.69;2082627;28;20045;-70
2022/10/06 04:03:34;;;;;;;5.55;3.63;;;;;;;13.63;79.82;100729.09;2091351;28;20049;-70
2022/10/06 04:04:37;;;;;;;9.25;3.60;;;;;;;13.64;79.68;100728.00;2090533;28;20045;-70
2022/10/06 04:05:58;;;;;;;6.63;3.53;;;;;;;13.63;80.00;100723.69;2090786;28;20057;-71
2022/10/06 04:07:03;;;;;;;5.50;3.67;;;;;;;13.62;79.89;100727.50;2088357;28;20128;-71
2022/10/06 04:08:14;;;;;;;5.88;3.42;;;;;;;13.62;79.88;100730.19;2092109;28;20040;-71
2022/10/06 04:09:21;;;;;;;7.03;3.70;;;;;;;13.66;79.96;100730.41;2073873;28;20040;-70
2022/10/06 04:10:28;;;;;;;5.07;3.35;;;;;;;13.67;80.06;100732.81;2058258;28;20046;-71
2022/10/06 04:11:38;;;;;;;8.85;3.78;;;;;;;13.70;80.08;100736.03;2061784;28;20474;-71
2022/10/06 04:12:45;;;;;;;6.65;3.67;;;;;;;13.72;79.90;100739.25;2081850;28;20484;-70
2022/10/06 04:13:55;;;;;;;5.93;3.47;;;;;;;13.73;79.98;100738.94;2073224;28;20057;-69
2022/10/06 04:15:02;;;;;;;5.68;3.15;;;;;;;13.73;80.02;100735.44;2061107;28;20039;-69
2022/10/06 04:16:41;;;;;;;5.72;3.50;;;;;;;13.72;80.07;100736.53;2067582;28;20031;-68
2022/10/06 04:17:45;;;;;;;6.75;3.35;;;;;;;13.74;80.10;100737.81;2086206;28;20044;-69
2022/10/06 04:18:55;;;;;;;5.20;3.30;;;;;;;13.75;80.16;100742.16;2073807;28;20050;-70
2022/10/06 04:19:57;;;;;;;;;;;;;;;13.76;80.20;100734.84;2067569;28;20410;-70
2022/10/06 04:21:07;;;;;;;6.78;3.20;;;;;;;13.78;80.38;100746.16;2074021;28;19917;-70
2022/10/06 04:22:09;;;;;;;4.85;3.30;;;;;;;13.79;80.31;100732.34;2065949;28;20042;-69
2022/10/06 04:23:12;;;;;;;5.28;3.03;;;;;;;13.82;80.45;100733.66;2065723;28;20027;-70
2022/10/06 04:24:26;;;;;;;7.50;3.05;;;;;;;13.84;80.48;100742.25;2074880;28;20033;-71
2022/10/06 04:25:30;;;;;;;5.43;3.47;;;;;;;13.85;80.84;100738.47;2082991;28;20037;-71
2022/10/06 04:26:44;;;;;;;4.18;2.92;;;;;;;13.88;80.85;100743.28;2082209;28;20045;-72
2022/10/06 04:27:52;;;;;;;5.53;3.05;;;;;;;13.89;80.96;100736.78;2075963;28;20053;-72
2022/10/06 04:28:55;;;;;;;5.35;3.03;;;;;;;13.90;80.79;100741.09;2074735;28;20042;-71
2022/10/06 04:30:03;;;;;;;5.97;3.30;;;;;;;13.91;80.94;100738.09;2082151;28;20052;-72
2022/10/06 04:31:14;;;;;;;3.83;2.80;;;;;;;13.93;80.99;100742.41;2082050;28;20045;-72
2022/10/06 04:32:18;;;;;;;3.97;2.63;;;;;;;13.94;81.10;100736.72;2085140;28;20045;-72
2022/10/06 04:33:24;;;;;;;5.53;2.80;;;;;;;13.95;81.37;100737.50;2081871;28;20033;-72
2022/10/06 04:34:33;;;;;;;5.93;3.10;;;;;;;13.94;81.49;100749.44;2076364;28;20053;-72
2022/10/06 04:35:36;;;;;;;4.70;3.05;;;;;;;13.96;81.93;100744.50;2074958;28;20037;-72
2022/10/06 04:36:46;;;;;;;4.20;2.72;;;;;;;13.97;82.03;100752.34;2073866;28;20094;-72
2022/10/06 04:37:52;;;;;;;6.68;2.80;;;;;;;14.00;81.72;100750.94;2066092;28;20061;-72
2022/10/06 04:39:02;;;;;;;5.93;3.08;;;;;;;14.02;81.83;100748.72;2057685;28;20034;-72
2022/10/06 04:40:08;;;;;;;4.38;2.92;;;;;;;14.04;81.89;100754.66;2064417;28;20514;-72
2022/10/06 04:41:17;;;;;;;7.05;2.65;;;;;;;14.06;81.87;100750.56;2074078;28;20025;-72
2022/10/06 04:42:28;;;;;;;5.90;2.70;;;;;;;14.08;82.06;100752.94;2092994;28;20128;-74
2022/10/06 04:43:37;;;;;;;6.97;2.80;;;;;;;14.08;81.90;100747.53;2085236;28;20124;-71
2022/10/06 04:44:40;;;;;;;;;;;;;;;14.07;81.78;100735.94;2081955;28;20041;-71
2022/10/06 04:45:44;;;;;;;5.97;2.28;;;;;;;14.08;81.91;100740.22;2072326;28;19924;-71
2022/10/06 04:46:51;;;;;;;4.70;2.50;;;;;;;14.09;82.11;100752.66;2073067;28;20086;-71
2022/10/06 04:47:59;;;;;;;4.68;2.40;;;;;;;14.11;81.89;100755.84;2088669;28;20527;-71
2022/10/06 04:49:05;;;;;;;4.80;3.00;;;;;;;14.12;82.04;100754.78;2080301;28;20049;-71
2022/10/06 04:50:14;;;;;;;4.65;2.25;;;;;;;14.11;81.88;100752.34;2056948;28;20043;-72
2022/10/06 04:51:35;;;;;;;4.93;2.70;;;;;;;14.14;82.12;100757.16;2079502;28;20790;-71
2022/10/06 04:52:38;;;;;;;5.65;3.00;;;;;;;14.17;81.83;100753.06;2080342;28;20052;-71
2022/10/06 04:53:47;;;;;;;3.42;2.47;;;;;;;14.18;81.83;100757.38;2072668;28;20049;-71
2022/10/06 04:54:59;;;;;;;3.63;2.30;;;;;;;14.20;81.94;100744.38;2080122;28;20045;-71
2022/10/06 04:56:18;;;;;;;3.30;2.45;;;;;;;14.21;81.57;100746.75;2089653;28;20445;-72
2022/10/06 04:57:21;;;;;;;2.90;2.22;;;;;;;14.22;81.54;100753.78;2080378;28;20049;-72
2022/10/06 04:58:31;;;;;;;5.95;3.10;;;;;;;14.24;81.66;100754.28;2072784;28;20394;-72
2022/10/06 05:00:55;;;;;;;4.53;2.83;;;;;;;14.26;81.50;100751.28;2082859;28;20046;-72
2022/10/06 05:02:01;;;;;;;5.18;2.50;;;;;;;14.29;81.24;100766.94;2080736;28;20037;-72
2022/10/06 05:03:08;;;;;;;7.35;2.50;;;;;;;14.31;81.04;100764.72;2080671;28;20029;-68
2022/10/06 05:04:13;;;;;;;4.40;2.72;;;;;;;14.32;81.41;100764.44;2080346;28;20038;-69
2022/10/06 05:05:15;;;;;;;4.35;2.40;;;;;;;14.33;81.38;100765.22;2071710;28;20050;-69
2022/10/06 05:06:22;;;;;;;7.07;2.90;;;;;;;14.33;81.15;100763.31;2080335;28;20053;-69
2022/10/06 05:07:25;;;;;;;8.23;2.88;;;;;;;14.34;81.07;100766.81;2080182;28;20044;-68
2022/10/06 05:08:39;;;;;;;6.45;2.85;;;;;;;14.35;81.21;100768.44;2074320;28;20054;-70
2022/10/06 05:09:46;;;;;;;9.68;2.47;;;;;;;14.35;81.20;100774.66;2095242;28;20122;-70
2022/10/06 05:10:51;;;;;;;3.75;2.63;;;;;;;14.37;81.14;100775.16;2087108;28;20615;-70
2022/10/06 05:11:56;;;;;;;4.47;2.65;;;;;;;14.34;81.37;100766.81;2087518;28;20382;-71
2022/10/06 05:13:02;;;;;;;5.65;3.08;;;;;;;14.35;81.23;100779.25;2080132;28;20041;-71
2022/10/06 05:14:08;;;;;;;4.80;3.15;;;;;;;14.36;80.86;100770.03;2080770;28;20056;-70